Language selection

Weather shortcuts

Nottingham - western half: Past 24 Hour Conditions

 

Churchill Airport

03:00 AM CST 27 February 2024
Disclaimer

This table is a summary of hourly weather conditions for the past 24 hours.
Please note that these observations might not always be representative of weather conditions over their associated marine area.

Date / Time
(CST)
Wind(knots) Conditions Visibility(km) Pressure(kPa) Air tempC) Relative humidity(%) Dew pointC) Wind Chill
27 February 2024
3:00 WNW 12 Ice Crystals 5 101.2 -29 68 -33 -43
2:00 NW 16 gusts 23 Ice Crystals 10 101.2 -28 65 -32 -42
1:00 WNW 10 gusts 16 Ice Crystals 19 101.2 -30 65 -34 -42
0:00 WNW 10 Drifting Snow 24 101.2 -29 64 -34 -42
26 February 2024
23:00 NW 16 Drifting Snow 24 101.1 -28 61 -33 -43
22:00 NW 18 gusts 24 Drifting Snow 24 101.1 -28 61 -33 -44
21:00 NW 15 gusts 21 Ice Crystals 24 101.1 -28 61 -33 -42
20:00 NW 17 Ice Crystals 24 101.1 -28 62 -33 -43
19:00 NW 17 gusts 23 Ice Crystals 19 101.0 -27 62 -32 -42
18:00 NW 18 gusts 25 Ice Crystals 16 101.0 -27 62 -32 -42
17:00 NW 18 gusts 26 Ice Crystals 16 100.9 -26 63 -31 -41
16:00 NW 21 Ice Crystals 13 100.8 -26 63 -31 -41
15:00 NW 19 gusts 26 Ice Crystals 10 100.7 -26 63 -31 -41
14:00 NW 18 gusts 26 Ice Crystals 5 100.7 -26 63 -31 -41
13:00 NW 19 gusts 26 Ice Crystals 5 100.6 -26 64 -31 -42
12:00 NW 21 gusts 29 Ice Crystals 8 100.5 -27 62 -32 -43
11:00 NW 19 gusts 29 Ice Crystals 8 100.4 -27 63 -32 -43
10:00 NW 18 gusts 29 Ice Crystals 10 100.3 -28 62 -33 -43
9:00 WNW 16 gusts 24 Ice Crystals 13 100.2 -29 63 -33 -44
8:00 WNW 14 gusts 19 Ice Crystals 16 100.2 -30 63 -35 -44
7:00 W 15 gusts 20 Ice Crystals 8 100.1 -30 62 -35 -45
6:00 W 15 Mainly Clear 24 100.1 -30 59 -36 -46
5:00 W 16 gusts 22 Partly Cloudy 24 100.1 -30 59 -36 -46
4:00 W 14 Mainly Clear 24 100.1 -30 58 -36 -45
3:00 W 13 Clear 24 100.1 -30 59 -36 -45

Zoom-in to make a selection

Map of Hudson - Hudson Bay marine weather areas Arviat Airport Baker Lake Airport Chesterfield Inlet Airport Coral Harbour Airport Rankin Inlet Airport Sanikiluaq Airport Whale Cove Airport Kinngait (Cape Dorset Airport) Iqaluit Airport Wager Bay Kimmirut Airport Churchill Airport Fort Severn Airport Peawanuck Airport Moosonee Airport Eastmain Airport La Grande Rivière Airport Waskaganish Airport Wemindji Airport Akulivik Airport Inukjuak Airport Ivujivik Airport Kuujjuarapik Airport Puvirnituq Airport Umiujaq Airport Aupaluk Airport Kangiqsujuaq Airport Kangirsuk Airport Kangiqsualujjuaq Airport Kuujjuaq Airport Quaqtaq Airport Salluit Airport Tasiujaq Airport Cape Kakkiviak
Legend:
buoy Buoy
land station Land Station

Hudson - Hudson Bay Area

Another Region

Date modified: